createdAt,value
2019-03-24T00:01:50.803Z,98976.88
2019-03-24T00:04:21.913Z,98982.50
2019-03-24T00:06:53.130Z,98971.92
2019-03-24T00:09:24.366Z,98976.75
2019-03-24T00:11:55.566Z,98977.79
2019-03-24T00:14:26.871Z,98974.53
2019-03-24T00:16:57.878Z,98970.00
2019-03-24T00:19:29.064Z,98967.58
2019-03-24T00:22:00.194Z,98963.11
2019-03-24T00:24:31.486Z,98965.39
2019-03-24T00:27:02.621Z,98961.02
2019-03-24T00:29:33.671Z,98963.41
2019-03-24T00:32:04.622Z,98958.70
2019-03-24T00:34:35.681Z,98956.60
2019-03-24T00:37:06.765Z,98954.92
2019-03-24T00:39:38.052Z,98960.28
2019-03-24T00:42:09.014Z,98956.66
2019-03-24T00:44:39.971Z,98956.31
2019-03-24T00:47:11.047Z,98956.14
2019-03-24T00:49:42.295Z,98943.92
2019-03-24T00:52:13.164Z,98948.00
2019-03-24T00:54:44.679Z,98945.17
2019-03-24T00:57:16.005Z,98940.91
2019-03-24T00:59:47.028Z,98940.68
2019-03-24T01:02:18.100Z,98942.53
2019-03-24T01:04:49.246Z,98939.10
2019-03-24T01:07:20.391Z,98933.87
2019-03-24T01:09:51.316Z,98942.75
2019-03-24T01:12:22.752Z,98938.27
2019-03-24T01:14:54.017Z,98934.91
2019-03-24T01:17:24.927Z,98933.64
2019-03-24T01:19:56.181Z,98932.75
2019-03-24T01:22:27.318Z,98930.25
2019-03-24T01:24:58.525Z,98928.16
2019-03-24T01:27:29.704Z,98920.94
2019-03-24T01:30:00.820Z,98920.70
2019-03-24T01:32:33.037Z,98917.39
2019-03-24T01:35:04.294Z,98923.58
2019-03-24T01:37:35.474Z,98903.00
2019-03-24T01:40:07.732Z,98913.68
2019-03-24T01:42:38.787Z,98914.70
2019-03-24T01:45:11.726Z,98915.97
2019-03-24T01:47:42.583Z,98914.43
2019-03-24T01:50:13.496Z,98916.72
2019-03-24T01:52:44.345Z,98913.88
2019-03-24T01:55:15.927Z,98916.66
2019-03-24T01:57:46.855Z,98914.73
2019-03-24T02:00:19.075Z,98906.72
2019-03-24T02:02:50.110Z,98899.53
2019-03-24T02:05:21.265Z,98898.95
2019-03-24T02:07:51.976Z,98899.77
2019-03-24T02:10:23.036Z,98893.09
2019-03-24T02:12:54.331Z,98896.34
2019-03-24T02:15:25.216Z,98895.19
2019-03-24T02:17:56.237Z,98897.41
2019-03-24T02:20:27.255Z,98899.55
2019-03-24T02:22:58.236Z,98895.16
2019-03-24T02:25:29.854Z,98897.33
2019-03-24T02:28:00.821Z,98894.59
2019-03-24T02:30:31.948Z,98892.30
2019-03-24T02:33:03.098Z,98891.25
2019-03-24T02:35:34.516Z,98894.39
2019-03-24T02:38:05.555Z,98891.34
2019-03-24T02:40:36.516Z,98894.02
2019-03-24T02:43:07.759Z,98897.75
2019-03-24T02:45:39.158Z,98892.78
2019-03-24T02:48:10.397Z,98892.19
2019-03-24T02:50:41.450Z,98887.98
2019-03-24T02:53:12.667Z,98891.98
2019-03-24T02:55:43.851Z,98888.77
2019-03-24T02:58:14.896Z,98891.67
2019-03-24T03:00:45.958Z,98888.50
2019-03-24T03:03:18.373Z,98891.02
2019-03-24T03:05:49.525Z,98886.34
2019-03-24T03:08:20.394Z,98886.50
2019-03-24T03:10:51.319Z,98893.55
2019-03-24T03:13:22.335Z,98889.55
2019-03-24T03:15:53.145Z,98885.84
2019-03-24T03:18:23.878Z,98889.71
2019-03-24T03:20:54.874Z,98885.12
2019-03-24T03:23:25.661Z,98890.73
2019-03-24T03:25:56.397Z,98890.06
2019-03-24T03:28:27.298Z,98887.31
2019-03-24T03:30:58.381Z,98887.34
2019-03-24T03:33:29.755Z,98887.03
2019-03-24T03:36:00.611Z,98880.87
2019-03-24T03:38:31.666Z,98883.63
2019-03-24T03:41:03.149Z,98884.67
2019-03-24T03:43:34.980Z,98888.60
2019-03-24T03:46:06.198Z,98887.27
2019-03-24T03:48:36.870Z,98882.88
2019-03-24T03:51:07.872Z,98882.59
2019-03-24T03:53:38.854Z,98882.28
2019-03-24T03:56:10.818Z,98876.66
2019-03-24T03:58:41.679Z,98872.94
2019-03-24T04:01:12.615Z,98877.98
2019-03-24T04:03:43.288Z,98880.87
2019-03-24T04:06:14.610Z,98886.23
2019-03-24T04:08:45.695Z,98877.52
2019-03-24T04:11:16.968Z,98881.20
2019-03-24T04:13:47.582Z,98874.83
2019-03-24T04:16:18.366Z,98872.40
2019-03-24T04:18:49.401Z,98870.10
2019-03-24T04:21:20.513Z,98867.02
2019-03-24T04:23:51.190Z,98863.02
2019-03-24T04:26:22.185Z,98861.52
2019-03-24T04:28:53.197Z,98860.75
2019-03-24T04:31:24.238Z,98862.06
2019-03-24T04:33:55.178Z,98866.73
2019-03-24T04:36:26.101Z,98865.26
2019-03-24T04:38:56.914Z,98864.92
2019-03-24T04:41:28.146Z,98860.41
2019-03-24T04:43:59.270Z,98858.83
2019-03-24T04:46:30.616Z,98860.91
2019-03-24T04:49:01.590Z,98864.66
2019-03-24T04:51:33.182Z,98858.97
2019-03-24T04:54:04.061Z,98864.44
2019-03-24T04:56:35.170Z,98866.51
2019-03-24T04:59:06.254Z,98870.70
2019-03-24T05:01:37.505Z,98873.17
2019-03-24T05:04:08.688Z,98865.60
2019-03-24T05:06:39.868Z,98866.48
2019-03-24T05:09:10.892Z,98868.00
2019-03-24T05:11:42.019Z,98871.20
2019-03-24T05:14:12.965Z,98863.73
2019-03-24T05:16:43.846Z,98869.28
2019-03-24T05:19:14.902Z,98873.08
2019-03-24T05:21:45.862Z,98872.17
2019-03-24T05:24:16.931Z,98878.97
2019-03-24T05:26:49.894Z,98877.55
2019-03-24T05:29:20.752Z,98878.66
2019-03-24T05:31:51.638Z,98883.50
2019-03-24T05:34:22.877Z,98885.01
2019-03-24T05:36:53.911Z,98882.55
2019-03-24T05:39:24.922Z,98868.27
2019-03-24T05:41:56.325Z,98872.57
2019-03-24T05:44:27.340Z,98878.95
2019-03-24T05:46:59.112Z,98874.30
2019-03-24T05:49:30.065Z,98869.84
2019-03-24T05:52:01.266Z,98872.77
2019-03-24T05:54:32.389Z,98875.85
2019-03-24T05:57:03.465Z,98871.13
2019-03-24T05:59:34.451Z,98866.92
2019-03-24T06:02:06.698Z,98871.00
2019-03-24T06:04:37.979Z,98873.16
2019-03-24T06:07:09.013Z,98875.33
2019-03-24T06:09:40.113Z,98873.27
2019-03-24T06:12:11.262Z,98874.58
2019-03-24T06:14:42.428Z,98879.48
2019-03-24T06:17:13.939Z,98874.73
2019-03-24T06:19:44.885Z,98864.58
2019-03-24T06:22:15.695Z,98869.50
2019-03-24T06:24:46.569Z,98868.12
2019-03-24T06:27:17.457Z,98869.70
2019-03-24T06:29:48.562Z,98868.17
2019-03-24T06:32:19.807Z,98867.87
2019-03-24T06:34:50.957Z,98860.59
2019-03-24T06:37:21.922Z,98866.80
2019-03-24T06:39:52.840Z,98866.98
2019-03-24T06:42:23.753Z,98866.52
2019-03-24T06:44:54.733Z,98855.97
2019-03-24T06:47:26.076Z,98854.87
2019-03-24T06:49:57.149Z,98857.45
2019-03-24T06:52:28.446Z,98855.31
2019-03-24T06:54:59.428Z,98859.78
2019-03-24T06:57:30.612Z,98855.65
2019-03-24T07:00:04.186Z,98854.75
2019-03-24T07:02:35.868Z,98863.16
2019-03-24T07:05:06.830Z,98862.70
2019-03-24T07:07:38.053Z,98860.81
2019-03-24T07:10:09.647Z,98866.59
2019-03-24T07:12:40.393Z,98865.27
2019-03-24T07:15:11.720Z,98861.50
2019-03-24T07:17:42.834Z,98858.58
2019-03-24T07:20:13.847Z,98854.96
2019-03-24T07:22:45.963Z,98854.64
2019-03-24T07:25:17.191Z,98857.96
2019-03-24T07:27:48.488Z,98856.59
2019-03-24T07:30:20.622Z,98852.44
2019-03-24T07:32:51.843Z,98847.17
2019-03-24T07:35:23.003Z,98848.55
2019-03-24T07:37:54.128Z,98845.61
2019-03-24T07:40:25.304Z,98843.42
2019-03-24T07:42:56.008Z,98850.10
2019-03-24T07:45:27.037Z,98840.80
2019-03-24T07:47:58.138Z,98840.05
2019-03-24T07:50:30.019Z,98837.31
2019-03-24T07:53:01.234Z,98833.08
2019-03-24T07:55:32.504Z,98838.12
2019-03-24T07:58:03.601Z,98830.82
2019-03-24T08:00:35.974Z,98831.34
2019-03-24T08:03:06.835Z,98830.59
2019-03-24T08:05:38.079Z,98831.69
2019-03-24T08:08:09.456Z,98833.55
2019-03-24T08:10:42.143Z,98824.83
2019-03-24T08:13:12.919Z,98825.80
2019-03-24T08:15:44.033Z,98824.50
2019-03-24T08:18:14.877Z,98818.66
2019-03-24T08:20:45.551Z,98825.89
2019-03-24T08:23:16.216Z,98822.66
2019-03-24T08:25:47.275Z,98817.69
2019-03-24T08:28:18.519Z,98821.30
2019-03-24T08:30:49.829Z,98815.30
2019-03-24T08:33:20.881Z,98818.66
2019-03-24T08:35:54.089Z,98820.23
2019-03-24T08:38:25.378Z,98824.11
2019-03-24T08:40:56.241Z,98826.48
2019-03-24T08:43:27.108Z,98826.97
2019-03-24T08:45:59.576Z,98823.77
2019-03-24T08:48:40.372Z,98822.16
2019-03-24T08:51:03.131Z,98820.71
2019-03-24T08:53:34.413Z,98814.27
2019-03-24T08:56:06.259Z,98809.59
2019-03-24T08:58:37.452Z,98812.02
2019-03-24T09:01:09.291Z,98807.27
2019-03-24T09:03:40.185Z,98804.97
2019-03-24T09:06:11.472Z,98797.48
2019-03-24T09:08:42.408Z,98800.97
2019-03-24T09:11:13.467Z,98788.72
2019-03-24T09:13:45.919Z,98792.51
2019-03-24T09:16:17.314Z,98783.47
2019-03-24T09:18:52.977Z,98782.66
2019-03-24T09:21:20.978Z,98781.62
2019-03-24T09:23:52.335Z,98778.67
2019-03-24T09:26:24.260Z,98776.05
2019-03-24T09:28:55.424Z,98777.09
2019-03-24T09:31:26.766Z,98778.86
2019-03-24T09:33:59.255Z,98767.73
2019-03-24T09:36:30.183Z,98768.10
2019-03-24T09:39:01.111Z,98766.97
2019-03-24T09:41:33.362Z,98760.92
2019-03-24T09:44:04.468Z,98762.02
2019-03-24T09:46:36.511Z,98756.56
2019-03-24T09:49:07.815Z,98748.03
2019-03-24T09:51:40.424Z,98741.83
2019-03-24T09:54:12.413Z,98737.11
2019-03-24T09:56:43.403Z,98748.05
2019-03-24T09:59:14.381Z,98743.02
2019-03-24T10:01:46.981Z,98734.42
2019-03-24T10:04:18.206Z,98718.52
2019-03-24T10:06:50.934Z,98714.75
2019-03-24T10:09:21.861Z,98713.72
2019-03-24T10:11:53.738Z,98720.94
2019-03-24T10:14:25.900Z,98714.91
2019-03-24T10:16:56.809Z,98709.62
2019-03-24T10:19:27.753Z,98707.47
2019-03-24T10:21:58.951Z,98711.45
2019-03-24T10:24:30.131Z,98699.03
2019-03-24T10:27:01.340Z,98698.40
2019-03-24T10:29:33.790Z,98691.40
2019-03-24T10:32:05.523Z,98689.18
2019-03-24T10:34:35.255Z,98688.38
2019-03-24T10:37:06.884Z,98680.31
2019-03-24T10:39:38.432Z,98667.75
2019-03-24T10:42:10.339Z,98672.89
2019-03-24T10:44:41.498Z,98668.26
2019-03-24T10:47:13.796Z,98655.81
2019-03-24T10:49:46.833Z,98657.61
2019-03-24T10:52:18.192Z,98669.48
2019-03-24T10:54:49.123Z,98667.61
2019-03-24T10:57:22.107Z,98672.92
2019-03-24T10:59:53.539Z,98671.00
2019-03-24T11:02:25.711Z,98672.14
2019-03-24T11:04:56.864Z,98673.27
2019-03-24T11:07:28.208Z,98668.17
2019-03-24T11:09:59.174Z,98664.84
2019-03-24T11:12:31.563Z,98667.06
2019-03-24T11:15:02.779Z,98663.78
2019-03-24T11:17:34.574Z,98667.51
2019-03-24T11:20:06.715Z,98665.84
2019-03-24T11:22:38.144Z,98664.52
2019-03-24T11:25:10.788Z,98663.58
2019-03-24T11:27:42.257Z,98667.55
2019-03-24T11:30:16.169Z,98665.16
2019-03-24T11:32:47.479Z,98659.52
2019-03-24T11:35:18.652Z,98663.65
2019-03-24T11:37:49.923Z,98664.77
2019-03-24T11:40:21.015Z,98656.39
2019-03-24T11:42:52.388Z,98660.76
2019-03-24T11:45:23.479Z,98659.39
2019-03-24T11:47:56.506Z,98663.19
2019-03-24T11:50:27.680Z,98654.86
2019-03-24T11:52:58.814Z,98652.78
2019-03-24T11:55:30.003Z,98652.30
2019-03-24T11:58:05.662Z,98648.12
2019-03-24T12:00:36.444Z,98649.61
2019-03-24T12:11:05.700Z,98643.27
2019-03-24T12:13:37.198Z,98639.06
2019-03-24T12:16:08.683Z,98637.66
2019-03-24T12:18:39.895Z,98634.61
2019-03-24T12:21:12.979Z,98629.52
2019-03-24T12:23:44.229Z,98629.50
2019-03-24T12:26:17.121Z,98620.81
2019-03-24T12:28:48.406Z,98620.95
2019-03-24T12:31:19.533Z,98619.04
2019-03-24T12:33:50.887Z,98604.69
2019-03-24T12:36:21.955Z,98608.37
2019-03-24T12:38:53.289Z,98603.48
2019-03-24T12:41:24.331Z,98597.92
2019-03-24T12:43:55.573Z,98592.20
2019-03-24T12:46:26.542Z,98581.85
2019-03-24T12:48:57.803Z,98578.89
2019-03-24T12:51:29.233Z,98574.55
2019-03-24T12:54:00.321Z,98576.22
2019-03-24T12:56:33.481Z,98575.20
2019-03-24T12:59:04.932Z,98569.11
2019-03-24T13:01:36.373Z,98566.47
2019-03-24T13:04:07.891Z,98562.09
2019-03-24T13:06:39.306Z,98565.73
2019-03-24T13:09:10.391Z,98562.23
2019-03-24T13:11:42.008Z,98556.69
2019-03-24T13:14:13.348Z,98552.77
2019-03-24T13:16:44.427Z,98552.65
2019-03-24T13:19:15.627Z,98541.77
2019-03-24T13:21:46.960Z,98549.95
2019-03-24T13:24:18.105Z,98549.37
2019-03-24T13:26:49.290Z,98540.82
2019-03-24T13:29:20.519Z,98547.05
2019-03-24T13:31:51.676Z,98544.26
2019-03-24T13:34:22.955Z,98535.13
2019-03-24T13:36:54.207Z,98530.56
2019-03-24T13:39:25.191Z,98531.33
2019-03-24T13:41:58.188Z,98535.38
2019-03-24T13:44:29.515Z,98521.09
2019-03-24T13:47:00.608Z,98522.48
2019-03-24T13:49:33.527Z,98526.31
2019-03-24T13:52:04.774Z,98530.34
2019-03-24T13:54:36.130Z,98531.70
2019-03-24T13:57:07.152Z,98532.02
2019-03-24T13:59:38.214Z,98525.98
2019-03-24T14:02:09.830Z,98519.84
2019-03-24T14:04:40.944Z,98524.58
2019-03-24T14:07:15.536Z,98524.34
2019-03-24T14:09:46.959Z,98521.65
2019-03-24T14:12:18.450Z,98523.68
2019-03-24T14:14:49.649Z,98506.06
2019-03-24T14:17:20.652Z,98516.69
2019-03-24T14:19:51.835Z,98516.36
2019-03-24T14:22:24.039Z,98519.95
2019-03-24T14:24:55.102Z,98526.23
2019-03-24T14:27:26.250Z,98526.23
2019-03-24T14:29:57.532Z,98541.94
2019-03-24T14:32:28.612Z,98522.73
2019-03-24T14:35:00.272Z,98530.25
2019-03-24T14:37:31.670Z,98524.13
2019-03-24T14:40:05.882Z,98530.16
2019-03-24T14:42:37.096Z,98531.06
2019-03-24T14:45:09.401Z,98542.61
2019-03-24T14:47:44.831Z,98544.36
2019-03-24T14:50:16.545Z,98547.35
2019-03-24T14:52:47.772Z,98538.08
2019-03-24T14:55:19.104Z,98543.55
2019-03-24T14:57:50.363Z,98536.87
2019-03-24T15:00:30.282Z,98557.53
2019-03-24T15:03:01.801Z,98552.87
2019-03-24T15:05:33.304Z,98549.05
2019-03-24T15:08:05.625Z,98548.73
2019-03-24T15:10:38.151Z,98562.22
2019-03-24T15:13:09.485Z,98557.10
2019-03-24T15:15:40.992Z,98558.36
2019-03-24T15:18:12.457Z,98561.14
2019-03-24T15:20:44.024Z,98557.52
2019-03-24T15:23:15.280Z,98567.48
2019-03-24T15:25:46.615Z,98551.79
2019-03-24T15:28:17.771Z,98558.01
2019-03-24T15:30:50.365Z,98560.30
2019-03-24T15:33:21.683Z,98560.89
2019-03-24T15:35:54.082Z,98560.05
2019-03-24T15:38:25.292Z,98560.31
2019-03-24T15:40:56.511Z,98563.52
2019-03-24T15:43:27.516Z,98563.00
2019-03-24T15:45:58.884Z,98550.13
2019-03-24T15:48:30.837Z,98557.25
2019-03-24T15:51:02.086Z,98557.69
2019-03-24T15:53:33.192Z,98560.61
2019-03-24T15:56:04.503Z,98565.06
2019-03-24T15:58:35.759Z,98569.73
2019-03-24T16:01:08.716Z,98567.10
2019-03-24T16:03:42.372Z,98573.84
2019-03-24T16:06:13.311Z,98581.74
2019-03-24T16:08:46.232Z,98580.22
2019-03-24T16:11:17.829Z,98579.56
2019-03-24T16:13:48.877Z,98572.52
2019-03-24T16:16:19.976Z,98572.52
2019-03-24T16:18:50.975Z,98573.67
2019-03-24T16:21:28.073Z,98577.58
2019-03-24T16:23:57.022Z,98578.40
2019-03-24T16:26:28.685Z,98583.82
2019-03-24T16:28:59.875Z,98578.53
2019-03-24T16:31:30.924Z,98585.69
2019-03-24T16:34:01.989Z,98581.72
2019-03-24T16:36:36.052Z,98575.22
2019-03-24T16:39:08.099Z,98581.47
2019-03-24T16:41:42.052Z,98584.10
2019-03-24T16:44:13.390Z,98584.38
2019-03-24T16:46:44.586Z,98586.47
2019-03-24T16:49:15.580Z,98585.27
2019-03-24T16:51:46.827Z,98575.94
2019-03-24T16:54:17.873Z,98576.03
2019-03-24T16:56:49.075Z,98580.12
2019-03-24T16:59:21.726Z,98576.59
2019-03-24T17:01:52.958Z,98586.22
2019-03-24T17:04:24.397Z,98588.70
2019-03-24T17:06:55.991Z,98597.73
2019-03-24T17:09:27.476Z,98590.47
2019-03-24T17:11:58.709Z,98594.58
2019-03-24T17:14:29.770Z,98587.77
2019-03-24T17:17:00.896Z,98588.76
2019-03-24T17:19:33.471Z,98589.61
2019-03-24T17:22:04.984Z,98589.12
2019-03-24T17:24:36.558Z,98597.89
2019-03-24T17:27:08.501Z,98598.67
2019-03-24T17:29:39.781Z,98600.33
2019-03-24T17:32:11.356Z,98605.13
2019-03-24T17:34:48.025Z,98603.98
2019-03-24T17:37:19.109Z,98606.25
2019-03-24T17:39:50.680Z,98611.19
2019-03-24T17:42:22.899Z,98617.47
2019-03-24T17:44:54.327Z,98616.95
2019-03-24T17:47:25.448Z,98622.31
2019-03-24T17:49:56.679Z,98619.96
2019-03-24T17:52:27.886Z,98624.98
2019-03-24T17:54:59.425Z,98633.00
2019-03-24T17:57:30.881Z,98629.73
2019-03-24T18:00:06.179Z,98632.15
2019-03-24T18:02:38.056Z,98629.45
2019-03-24T18:05:10.840Z,98630.94
2019-03-24T18:07:42.043Z,98636.89
2019-03-24T18:10:13.448Z,98629.02
2019-03-24T18:12:45.045Z,98632.39
2019-03-24T18:15:16.368Z,98638.36
2019-03-24T18:17:47.627Z,98637.94
2019-03-24T18:20:31.081Z,98646.18
2019-03-24T18:23:02.755Z,98644.39
2019-03-24T18:25:33.922Z,98648.95
2019-03-24T18:28:05.543Z,98651.86
2019-03-24T18:30:37.057Z,98648.77
2019-03-24T18:33:08.735Z,98651.55
2019-03-24T18:35:39.962Z,98651.95
2019-03-24T18:38:11.332Z,98653.54
2019-03-24T18:40:42.646Z,98660.22
2019-03-24T18:43:13.762Z,98656.36
2019-03-24T18:45:45.308Z,98657.05
2019-03-24T18:48:16.910Z,98658.75
2019-03-24T18:50:48.169Z,98660.34
2019-03-24T18:53:19.362Z,98657.70
2019-03-24T18:55:50.832Z,98660.17
2019-03-24T18:58:22.133Z,98660.34
2019-03-24T19:00:53.211Z,98656.84
2019-03-24T19:03:24.479Z,98660.04
2019-03-24T19:05:55.991Z,98669.21
2019-03-24T19:08:27.264Z,98673.23
2019-03-24T19:11:02.413Z,98671.84
2019-03-24T19:13:35.937Z,98669.47
2019-03-24T19:16:07.216Z,98673.41
2019-03-24T19:18:38.692Z,98668.80
2019-03-24T19:21:09.972Z,98667.16
2019-03-24T19:23:41.978Z,98670.72
2019-03-24T19:26:14.493Z,98669.53
2019-03-24T19:28:46.930Z,98678.80
2019-03-24T19:31:18.258Z,98683.66
2019-03-24T19:33:49.846Z,98682.69
2019-03-24T19:36:22.268Z,98680.98
2019-03-24T19:38:53.859Z,98674.53
2019-03-24T19:41:25.329Z,98677.80
2019-03-24T19:43:56.648Z,98666.77
2019-03-24T19:46:28.135Z,98658.75
2019-03-24T19:48:59.719Z,98661.44
2019-03-24T19:51:30.931Z,98661.66
2019-03-24T19:54:03.961Z,98670.84
2019-03-24T19:56:35.246Z,98670.57
2019-03-24T19:59:06.837Z,98664.67
2019-03-24T20:01:38.291Z,98667.36
2019-03-24T20:04:09.731Z,98658.18
2019-03-24T20:06:41.038Z,98661.72
2019-03-24T20:09:12.206Z,98658.46
2019-03-24T20:11:43.479Z,98638.27
2019-03-24T20:14:14.749Z,98642.57
2019-03-24T20:16:45.874Z,98650.93
2019-03-24T20:19:17.291Z,98647.14
2019-03-24T20:21:48.351Z,98647.17
2019-03-24T20:24:19.390Z,98647.16
2019-03-24T20:26:50.771Z,98655.77
2019-03-24T20:29:22.509Z,98649.59
2019-03-24T20:31:53.851Z,98652.27
2019-03-24T20:34:26.778Z,98645.81
2019-03-24T20:36:58.300Z,98643.92
2019-03-24T20:39:29.922Z,98643.92
2019-03-24T20:42:01.113Z,98638.52
2019-03-24T20:44:32.468Z,98638.77
2019-03-24T20:47:03.739Z,98637.44
2019-03-24T20:49:36.703Z,98631.48
2019-03-24T20:52:07.973Z,98629.03
2019-03-24T20:54:40.784Z,98629.56
2019-03-24T20:57:12.334Z,98630.08
2019-03-24T20:59:43.561Z,98627.95
2019-03-24T21:02:14.631Z,98631.95
2019-03-24T21:04:47.076Z,98635.45
2019-03-24T21:07:18.074Z,98634.12
2019-03-24T21:09:49.266Z,98633.02
2019-03-24T21:12:20.463Z,98631.41
2019-03-24T21:14:53.134Z,98626.83
2019-03-24T21:17:24.022Z,98620.87
2019-03-24T21:19:57.008Z,98624.11
2019-03-24T21:22:28.489Z,98621.13
2019-03-24T21:25:00.357Z,98625.95
2019-03-24T21:27:32.022Z,98632.64
2019-03-24T21:30:03.351Z,98634.78
2019-03-24T21:32:34.751Z,98638.59
2019-03-24T21:35:06.025Z,98630.81
2019-03-24T21:37:37.582Z,98629.22
2019-03-24T21:40:09.523Z,98630.86
2019-03-24T21:42:41.315Z,98630.34
2019-03-24T21:45:12.024Z,98627.41
2019-03-24T21:47:43.329Z,98630.38
2019-03-24T21:50:14.675Z,98633.56
2019-03-24T21:52:45.932Z,98629.75
2019-03-24T21:55:17.251Z,98638.30
2019-03-24T21:57:57.088Z,98630.56
2019-03-24T22:00:33.400Z,98629.80
2019-03-24T22:03:04.640Z,98627.13
2019-03-24T22:05:37.060Z,98632.55
2019-03-24T22:08:08.464Z,98628.52
2019-03-24T22:10:39.647Z,98625.01
2019-03-24T22:13:12.769Z,98626.64
2019-03-24T22:15:44.054Z,98622.31
2019-03-24T22:18:15.284Z,98616.67
2019-03-24T22:20:49.050Z,98616.14
2019-03-24T22:23:19.241Z,98616.16
2019-03-24T22:25:50.354Z,98621.02
2019-03-24T22:28:21.762Z,98617.52
2019-03-24T22:30:54.499Z,98616.97
2019-03-24T22:33:25.944Z,98614.27
2019-03-24T22:35:56.968Z,98608.63
2019-03-24T22:38:27.929Z,98597.05
2019-03-24T22:40:59.066Z,98611.84
2019-03-24T22:43:30.286Z,98605.11
2019-03-24T22:46:03.261Z,98597.58
2019-03-24T22:48:33.976Z,98600.27
2019-03-24T22:51:05.273Z,98598.66
2019-03-24T22:53:36.338Z,98597.31
2019-03-24T22:56:07.424Z,98599.76
2019-03-24T22:58:38.490Z,98602.45
2019-03-24T23:01:09.909Z,98592.21
2019-03-24T23:03:43.147Z,98590.31
2019-03-24T23:06:14.398Z,98593.00
2019-03-24T23:08:46.409Z,98592.73
2019-03-24T23:11:17.826Z,98592.22
2019-03-24T23:13:49.046Z,98597.05
2019-03-24T23:16:20.107Z,98603.78
2019-03-24T23:18:51.436Z,98595.98
2019-03-24T23:21:22.622Z,98597.30
2019-03-24T23:23:55.522Z,98598.13
2019-03-24T23:26:26.418Z,98597.86
2019-03-24T23:28:57.498Z,98601.89
2019-03-24T23:31:28.334Z,98596.78
2019-03-24T23:33:59.827Z,98595.70
2019-03-24T23:36:30.929Z,98589.25
2019-03-24T23:39:04.548Z,98588.97
2019-03-24T23:41:35.495Z,98591.13
2019-03-24T23:44:06.772Z,98589.52
2019-03-24T23:46:37.834Z,98582.23
2019-03-24T23:49:08.830Z,98585.47
2019-03-24T23:51:40.167Z,98582.49
2019-03-24T23:54:11.194Z,98579.53
2019-03-24T23:56:42.193Z,98582.75
2019-03-24T23:59:13.951Z,98581.69
